sensor_id;sensor_type;location;lat;lon;timestamp;P1;durP1;ratioP1;P2;durP2;ratioP2
15153;SDS011;7677;41.896;25.004;2024-03-08T00:01:25;70.20;;;26.47;;
15153;SDS011;7677;41.896;25.004;2024-03-08T00:03:53;207.07;;;33.17;;
15153;SDS011;7677;41.896;25.004;2024-03-08T00:06:20;254.50;;;38.60;;
15153;SDS011;7677;41.896;25.004;2024-03-08T00:08:47;62.57;;;25.20;;
15153;SDS011;7677;41.896;25.004;2024-03-08T00:11:16;170.90;;;30.37;;
15153;SDS011;7677;41.896;25.004;2024-03-08T00:13:45;59.03;;;25.17;;
15153;SDS011;7677;41.896;25.004;2024-03-08T00:16:12;351.00;;;42.17;;
15153;SDS011;7677;41.896;25.004;2024-03-08T00:18:39;106.30;;;26.90;;
15153;SDS011;7677;41.896;25.004;2024-03-08T00:21:06;132.60;;;29.07;;
15153;SDS011;7677;41.896;25.004;2024-03-08T00:23:35;55.30;;;24.67;;
15153;SDS011;7677;41.896;25.004;2024-03-08T00:26:03;46.23;;;24.70;;
15153;SDS011;7677;41.896;25.004;2024-03-08T00:28:31;44.83;;;22.57;;
15153;SDS011;7677;41.896;25.004;2024-03-08T00:31:00;87.97;;;24.90;;
15153;SDS011;7677;41.896;25.004;2024-03-08T00:33:28;47.77;;;23.77;;
15153;SDS011;7677;41.896;25.004;2024-03-08T00:35:55;50.00;;;21.93;;
15153;SDS011;7677;41.896;25.004;2024-03-08T00:38:22;61.37;;;22.90;;
15153;SDS011;7677;41.896;25.004;2024-03-08T00:40:49;54.70;;;22.73;;
15153;SDS011;7677;41.896;25.004;2024-03-08T00:43:17;69.57;;;22.73;;
15153;SDS011;7677;41.896;25.004;2024-03-08T00:45:44;60.73;;;22.17;;
15153;SDS011;7677;41.896;25.004;2024-03-08T00:48:12;93.70;;;24.23;;
15153;SDS011;7677;41.896;25.004;2024-03-08T00:50:40;180.63;;;32.20;;
15153;SDS011;7677;41.896;25.004;2024-03-08T00:53:07;144.70;;;26.33;;
15153;SDS011;7677;41.896;25.004;2024-03-08T00:55:36;71.67;;;21.83;;
15153;SDS011;7677;41.896;25.004;2024-03-08T00:58:03;51.50;;;22.63;;
15153;SDS011;7677;41.896;25.004;2024-03-08T01:00:31;49.83;;;21.97;;
15153;SDS011;7677;41.896;25.004;2024-03-08T01:02:58;47.70;;;23.60;;
15153;SDS011;7677;41.896;25.004;2024-03-08T01:05:27;113.17;;;25.93;;
15153;SDS011;7677;41.896;25.004;2024-03-08T01:07:54;143.03;;;27.57;;
15153;SDS011;7677;41.896;25.004;2024-03-08T01:10:21;169.23;;;30.17;;
15153;SDS011;7677;41.896;25.004;2024-03-08T01:12:49;92.57;;;27.33;;
15153;SDS011;7677;41.896;25.004;2024-03-08T01:15:16;156.47;;;27.17;;
15153;SDS011;7677;41.896;25.004;2024-03-08T01:17:43;60.07;;;24.13;;
15153;SDS011;7677;41.896;25.004;2024-03-08T01:20:10;102.97;;;24.07;;
15153;SDS011;7677;41.896;25.004;2024-03-08T01:22:40;55.50;;;24.17;;
15153;SDS011;7677;41.896;25.004;2024-03-08T01:25:07;41.10;;;22.90;;
15153;SDS011;7677;41.896;25.004;2024-03-08T01:27:35;84.83;;;22.63;;
15153;SDS011;7677;41.896;25.004;2024-03-08T01:30:02;43.37;;;22.93;;
15153;SDS011;7677;41.896;25.004;2024-03-08T01:32:30;47.80;;;22.13;;
15153;SDS011;7677;41.896;25.004;2024-03-08T01:34:57;111.63;;;23.50;;
15153;SDS011;7677;41.896;25.004;2024-03-08T01:37:24;109.73;;;23.63;;
15153;SDS011;7677;41.896;25.004;2024-03-08T01:39:53;49.27;;;20.10;;
15153;SDS011;7677;41.896;25.004;2024-03-08T01:42:20;86.90;;;21.67;;
15153;SDS011;7677;41.896;25.004;2024-03-08T01:44:47;64.03;;;20.53;;
15153;SDS011;7677;41.896;25.004;2024-03-08T01:47:15;56.63;;;20.63;;
15153;SDS011;7677;41.896;25.004;2024-03-08T01:49:42;39.50;;;20.80;;
15153;SDS011;7677;41.896;25.004;2024-03-08T01:52:10;100.53;;;25.37;;
15153;SDS011;7677;41.896;25.004;2024-03-08T01:54:37;53.33;;;22.67;;
15153;SDS011;7677;41.896;25.004;2024-03-08T01:57:07;74.40;;;23.43;;
15153;SDS011;7677;41.896;25.004;2024-03-08T01:59:34;50.53;;;22.80;;
15153;SDS011;7677;41.896;25.004;2024-03-08T02:02:02;40.07;;;21.03;;
15153;SDS011;7677;41.896;25.004;2024-03-08T02:04:31;37.13;;;20.43;;
15153;SDS011;7677;41.896;25.004;2024-03-08T02:06:59;43.27;;;21.87;;
15153;SDS011;7677;41.896;25.004;2024-03-08T02:09:26;35.57;;;16.13;;
15153;SDS011;7677;41.896;25.004;2024-03-08T02:11:56;49.63;;;18.47;;
15153;SDS011;7677;41.896;25.004;2024-03-08T02:14:25;33.40;;;19.50;;
15153;SDS011;7677;41.896;25.004;2024-03-08T02:16:52;29.00;;;15.73;;
15153;SDS011;7677;41.896;25.004;2024-03-08T02:19:23;29.50;;;15.07;;
15153;SDS011;7677;41.896;25.004;2024-03-08T02:21:52;29.50;;;14.97;;
15153;SDS011;7677;41.896;25.004;2024-03-08T02:24:19;26.67;;;15.10;;
15153;SDS011;7677;41.896;25.004;2024-03-08T02:26:46;32.10;;;16.97;;
15153;SDS011;7677;41.896;25.004;2024-03-08T02:29:13;28.37;;;16.13;;
15153;SDS011;7677;41.896;25.004;2024-03-08T02:31:41;19.30;;;12.47;;
15153;SDS011;7677;41.896;25.004;2024-03-08T02:34:08;19.40;;;12.03;;
15153;SDS011;7677;41.896;25.004;2024-03-08T02:36:36;18.07;;;11.50;;
15153;SDS011;7677;41.896;25.004;2024-03-08T02:39:04;19.73;;;12.20;;
15153;SDS011;7677;41.896;25.004;2024-03-08T02:41:32;20.43;;;12.57;;
15153;SDS011;7677;41.896;25.004;2024-03-08T02:43:59;24.00;;;13.50;;
15153;SDS011;7677;41.896;25.004;2024-03-08T02:46:26;19.13;;;12.07;;
15153;SDS011;7677;41.896;25.004;2024-03-08T02:48:55;21.80;;;13.13;;
15153;SDS011;7677;41.896;25.004;2024-03-08T02:51:22;20.43;;;12.70;;
15153;SDS011;7677;41.896;25.004;2024-03-08T02:53:51;25.00;;;15.33;;
15153;SDS011;7677;41.896;25.004;2024-03-08T02:56:20;21.07;;;13.33;;
15153;SDS011;7677;41.896;25.004;2024-03-08T02:58:47;22.03;;;13.60;;
15153;SDS011;7677;41.896;25.004;2024-03-08T03:01:14;22.83;;;14.00;;
15153;SDS011;7677;41.896;25.004;2024-03-08T03:03:42;22.27;;;13.77;;
15153;SDS011;7677;41.896;25.004;2024-03-08T03:06:09;20.77;;;12.77;;
15153;SDS011;7677;41.896;25.004;2024-03-08T03:08:37;23.77;;;14.60;;
15153;SDS011;7677;41.896;25.004;2024-03-08T03:11:08;21.57;;;13.03;;
15153;SDS011;7677;41.896;25.004;2024-03-08T03:13:36;21.20;;;12.70;;
15153;SDS011;7677;41.896;25.004;2024-03-08T03:16:04;21.60;;;12.33;;
15153;SDS011;7677;41.896;25.004;2024-03-08T03:18:32;21.60;;;13.20;;
15153;SDS011;7677;41.896;25.004;2024-03-08T03:20:59;26.53;;;15.40;;
15153;SDS011;7677;41.896;25.004;2024-03-08T03:23:32;22.77;;;13.47;;
15153;SDS011;7677;41.896;25.004;2024-03-08T03:26:00;24.00;;;14.70;;
15153;SDS011;7677;41.896;25.004;2024-03-08T03:28:27;22.40;;;14.77;;
15153;SDS011;7677;41.896;25.004;2024-03-08T03:30:56;22.27;;;14.83;;
15153;SDS011;7677;41.896;25.004;2024-03-08T03:33:25;24.03;;;14.03;;
15153;SDS011;7677;41.896;25.004;2024-03-08T03:35:52;26.53;;;15.37;;
15153;SDS011;7677;41.896;25.004;2024-03-08T03:38:19;25.03;;;14.63;;
15153;SDS011;7677;41.896;25.004;2024-03-08T03:40:49;20.90;;;13.10;;
15153;SDS011;7677;41.896;25.004;2024-03-08T03:43:17;23.90;;;13.63;;
15153;SDS011;7677;41.896;25.004;2024-03-08T03:45:45;21.23;;;13.80;;
15153;SDS011;7677;41.896;25.004;2024-03-08T03:48:13;22.27;;;13.53;;
15153;SDS011;7677;41.896;25.004;2024-03-08T03:50:40;19.83;;;13.97;;
15153;SDS011;7677;41.896;25.004;2024-03-08T03:53:09;24.93;;;14.03;;
15153;SDS011;7677;41.896;25.004;2024-03-08T03:55:36;21.13;;;14.20;;
15153;SDS011;7677;41.896;25.004;2024-03-08T03:58:04;17.63;;;11.50;;
15153;SDS011;7677;41.896;25.004;2024-03-08T04:00:31;19.93;;;12.63;;
15153;SDS011;7677;41.896;25.004;2024-03-08T04:02:58;20.47;;;12.73;;
15153;SDS011;7677;41.896;25.004;2024-03-08T04:05:27;22.67;;;12.97;;
15153;SDS011;7677;41.896;25.004;2024-03-08T04:07:54;21.87;;;14.13;;
15153;SDS011;7677;41.896;25.004;2024-03-08T04:10:22;23.53;;;13.63;;
15153;SDS011;7677;41.896;25.004;2024-03-08T04:12:49;21.43;;;12.27;;
15153;SDS011;7677;41.896;25.004;2024-03-08T04:15:16;16.63;;;10.83;;
15153;SDS011;7677;41.896;25.004;2024-03-08T04:17:43;13.37;;;8.40;;
15153;SDS011;7677;41.896;25.004;2024-03-08T04:20:11;11.83;;;7.53;;
15153;SDS011;7677;41.896;25.004;2024-03-08T04:22:41;12.40;;;8.70;;
15153;SDS011;7677;41.896;25.004;2024-03-08T04:25:09;15.83;;;9.37;;
15153;SDS011;7677;41.896;25.004;2024-03-08T04:27:36;15.30;;;9.40;;
15153;SDS011;7677;41.896;25.004;2024-03-08T04:30:04;24.13;;;12.17;;
15153;SDS011;7677;41.896;25.004;2024-03-08T04:32:32;23.17;;;11.00;;
15153;SDS011;7677;41.896;25.004;2024-03-08T04:35:00;16.73;;;11.20;;
15153;SDS011;7677;41.896;25.004;2024-03-08T04:37:28;25.67;;;12.23;;
15153;SDS011;7677;41.896;25.004;2024-03-08T04:39:57;91.57;;;18.57;;
15153;SDS011;7677;41.896;25.004;2024-03-08T04:42:24;130.47;;;22.00;;
15153;SDS011;7677;41.896;25.004;2024-03-08T04:44:52;74.07;;;16.43;;
15153;SDS011;7677;41.896;25.004;2024-03-08T04:47:20;26.50;;;14.73;;
15153;SDS011;7677;41.896;25.004;2024-03-08T04:49:47;32.03;;;19.67;;
15153;SDS011;7677;41.896;25.004;2024-03-08T04:52:15;160.80;;;72.27;;
15153;SDS011;7677;41.896;25.004;2024-03-08T04:54:43;76.83;;;43.17;;
15153;SDS011;7677;41.896;25.004;2024-03-08T04:57:12;45.93;;;25.63;;
15153;SDS011;7677;41.896;25.004;2024-03-08T04:59:39;31.83;;;18.57;;
15153;SDS011;7677;41.896;25.004;2024-03-08T05:02:06;26.00;;;15.10;;
15153;SDS011;7677;41.896;25.004;2024-03-08T05:04:34;25.77;;;14.90;;
15153;SDS011;7677;41.896;25.004;2024-03-08T05:07:01;19.93;;;13.50;;
15153;SDS011;7677;41.896;25.004;2024-03-08T05:09:29;49.93;;;17.93;;
15153;SDS011;7677;41.896;25.004;2024-03-08T05:11:57;32.90;;;18.53;;
15153;SDS011;7677;41.896;25.004;2024-03-08T05:14:26;32.30;;;16.93;;
15153;SDS011;7677;41.896;25.004;2024-03-08T05:16:53;25.47;;;14.00;;
15153;SDS011;7677;41.896;25.004;2024-03-08T05:19:20;30.40;;;15.60;;
15153;SDS011;7677;41.896;25.004;2024-03-08T05:21:48;28.37;;;15.50;;
15153;SDS011;7677;41.896;25.004;2024-03-08T05:24:16;27.33;;;15.60;;
15153;SDS011;7677;41.896;25.004;2024-03-08T05:26:43;31.43;;;16.90;;
15153;SDS011;7677;41.896;25.004;2024-03-08T05:29:11;32.03;;;17.20;;
15153;SDS011;7677;41.896;25.004;2024-03-08T05:31:45;33.17;;;16.37;;
15153;SDS011;7677;41.896;25.004;2024-03-08T05:34:13;27.17;;;16.23;;
15153;SDS011;7677;41.896;25.004;2024-03-08T05:36:41;25.93;;;16.33;;
15153;SDS011;7677;41.896;25.004;2024-03-08T05:39:09;27.93;;;16.60;;
15153;SDS011;7677;41.896;25.004;2024-03-08T05:41:37;20.57;;;13.47;;
15153;SDS011;7677;41.896;25.004;2024-03-08T05:44:04;24.03;;;13.73;;
15153;SDS011;7677;41.896;25.004;2024-03-08T05:46:32;21.63;;;11.90;;
15153;SDS011;7677;41.896;25.004;2024-03-08T05:49:00;21.93;;;13.27;;
15153;SDS011;7677;41.896;25.004;2024-03-08T05:51:30;21.43;;;14.63;;
15153;SDS011;7677;41.896;25.004;2024-03-08T05:53:59;22.93;;;13.70;;
15153;SDS011;7677;41.896;25.004;2024-03-08T05:56:28;25.07;;;14.43;;
15153;SDS011;7677;41.896;25.004;2024-03-08T05:58:55;22.17;;;13.87;;
15153;SDS011;7677;41.896;25.004;2024-03-08T06:01:23;23.43;;;13.27;;
15153;SDS011;7677;41.896;25.004;2024-03-08T06:03:51;23.53;;;13.27;;
15153;SDS011;7677;41.896;25.004;2024-03-08T06:06:22;40.37;;;19.50;;
15153;SDS011;7677;41.896;25.004;2024-03-08T06:08:49;55.23;;;32.03;;
15153;SDS011;7677;41.896;25.004;2024-03-08T06:11:17;41.93;;;25.30;;
15153;SDS011;7677;41.896;25.004;2024-03-08T06:13:45;26.27;;;15.33;;
15153;SDS011;7677;41.896;25.004;2024-03-08T06:16:13;24.07;;;14.10;;
15153;SDS011;7677;41.896;25.004;2024-03-08T06:18:40;25.90;;;15.07;;
15153;SDS011;7677;41.896;25.004;2024-03-08T06:21:07;27.70;;;16.13;;
15153;SDS011;7677;41.896;25.004;2024-03-08T06:23:38;26.70;;;16.53;;
15153;SDS011;7677;41.896;25.004;2024-03-08T06:26:05;23.80;;;15.40;;
15153;SDS011;7677;41.896;25.004;2024-03-08T06:28:32;28.97;;;14.83;;
15153;SDS011;7677;41.896;25.004;2024-03-08T06:31:00;31.47;;;17.83;;
15153;SDS011;7677;41.896;25.004;2024-03-08T06:33:27;36.63;;;19.47;;
15153;SDS011;7677;41.896;25.004;2024-03-08T06:35:55;42.00;;;23.23;;
15153;SDS011;7677;41.896;25.004;2024-03-08T06:38:22;43.63;;;24.67;;
15153;SDS011;7677;41.896;25.004;2024-03-08T06:40:51;30.97;;;20.40;;
15153;SDS011;7677;41.896;25.004;2024-03-08T06:43:19;22.87;;;15.40;;
15153;SDS011;7677;41.896;25.004;2024-03-08T06:45:47;24.40;;;13.33;;
15153;SDS011;7677;41.896;25.004;2024-03-08T06:48:14;22.17;;;12.80;;
15153;SDS011;7677;41.896;25.004;2024-03-08T06:50:42;22.00;;;13.33;;
15153;SDS011;7677;41.896;25.004;2024-03-08T06:53:11;20.70;;;12.97;;
15153;SDS011;7677;41.896;25.004;2024-03-08T06:55:38;22.33;;;13.43;;
15153;SDS011;7677;41.896;25.004;2024-03-08T06:58:07;24.33;;;14.50;;
15153;SDS011;7677;41.896;25.004;2024-03-08T07:00:36;23.27;;;12.83;;
15153;SDS011;7677;41.896;25.004;2024-03-08T07:03:03;20.77;;;13.07;;
15153;SDS011;7677;41.896;25.004;2024-03-08T07:05:33;22.33;;;13.33;;
15153;SDS011;7677;41.896;25.004;2024-03-08T07:08:00;18.57;;;11.53;;
15153;SDS011;7677;41.896;25.004;2024-03-08T07:10:27;17.37;;;11.80;;
15153;SDS011;7677;41.896;25.004;2024-03-08T07:12:55;20.33;;;12.57;;
15153;SDS011;7677;41.896;25.004;2024-03-08T07:15:23;22.40;;;14.30;;
15153;SDS011;7677;41.896;25.004;2024-03-08T07:17:50;22.97;;;14.30;;
15153;SDS011;7677;41.896;25.004;2024-03-08T07:20:18;26.17;;;16.67;;
15153;SDS011;7677;41.896;25.004;2024-03-08T07:22:45;25.33;;;14.73;;
15153;SDS011;7677;41.896;25.004;2024-03-08T07:25:16;20.47;;;12.93;;
15153;SDS011;7677;41.896;25.004;2024-03-08T07:27:47;29.60;;;18.43;;
15153;SDS011;7677;41.896;25.004;2024-03-08T07:30:14;15.87;;;10.00;;
15153;SDS011;7677;41.896;25.004;2024-03-08T07:33:05;15.40;;;10.73;;
15153;SDS011;7677;41.896;25.004;2024-03-08T07:35:33;20.33;;;11.17;;
15153;SDS011;7677;41.896;25.004;2024-03-08T07:38:02;55.10;;;30.37;;
15153;SDS011;7677;41.896;25.004;2024-03-08T07:40:30;28.93;;;14.93;;
15153;SDS011;7677;41.896;25.004;2024-03-08T07:42:58;32.20;;;17.80;;
15153;SDS011;7677;41.896;25.004;2024-03-08T07:45:26;20.53;;;12.63;;
15153;SDS011;7677;41.896;25.004;2024-03-08T07:47:53;19.83;;;13.03;;
15153;SDS011;7677;41.896;25.004;2024-03-08T07:50:22;28.73;;;18.37;;
15153;SDS011;7677;41.896;25.004;2024-03-08T07:52:50;26.67;;;17.50;;
15153;SDS011;7677;41.896;25.004;2024-03-08T07:55:17;27.90;;;16.80;;
15153;SDS011;7677;41.896;25.004;2024-03-08T07:57:44;22.20;;;12.47;;
15153;SDS011;7677;41.896;25.004;2024-03-08T08:00:13;18.43;;;12.30;;
15153;SDS011;7677;41.896;25.004;2024-03-08T08:02:43;26.03;;;14.77;;
15153;SDS011;7677;41.896;25.004;2024-03-08T08:05:11;20.63;;;13.20;;
15153;SDS011;7677;41.896;25.004;2024-03-08T08:07:43;20.23;;;14.20;;
15153;SDS011;7677;41.896;25.004;2024-03-08T08:10:11;23.53;;;15.20;;
15153;SDS011;7677;41.896;25.004;2024-03-08T08:12:43;19.20;;;12.23;;
15153;SDS011;7677;41.896;25.004;2024-03-08T08:15:11;22.90;;;13.73;;
15153;SDS011;7677;41.896;25.004;2024-03-08T08:17:40;21.17;;;13.73;;
15153;SDS011;7677;41.896;25.004;2024-03-08T08:20:08;17.87;;;12.77;;
15153;SDS011;7677;41.896;25.004;2024-03-08T08:22:37;19.37;;;11.20;;
15153;SDS011;7677;41.896;25.004;2024-03-08T08:25:07;16.97;;;10.63;;
15153;SDS011;7677;41.896;25.004;2024-03-08T08:27:34;18.53;;;10.80;;
15153;SDS011;7677;41.896;25.004;2024-03-08T08:30:03;19.60;;;11.40;;
15153;SDS011;7677;41.896;25.004;2024-03-08T08:32:33;19.27;;;11.10;;
15153;SDS011;7677;41.896;25.004;2024-03-08T08:35:01;16.63;;;11.90;;
15153;SDS011;7677;41.896;25.004;2024-03-08T08:37:29;21.23;;;13.40;;
15153;SDS011;7677;41.896;25.004;2024-03-08T08:39:57;20.23;;;13.03;;
15153;SDS011;7677;41.896;25.004;2024-03-08T08:42:32;26.63;;;14.80;;
15153;SDS011;7677;41.896;25.004;2024-03-08T08:44:59;21.00;;;14.37;;
15153;SDS011;7677;41.896;25.004;2024-03-08T08:47:26;21.67;;;14.33;;
15153;SDS011;7677;41.896;25.004;2024-03-08T08:49:54;16.93;;;12.27;;
15153;SDS011;7677;41.896;25.004;2024-03-08T08:52:21;19.43;;;11.70;;
15153;SDS011;7677;41.896;25.004;2024-03-08T08:54:48;18.03;;;12.90;;
15153;SDS011;7677;41.896;25.004;2024-03-08T08:57:16;17.50;;;11.93;;
15153;SDS011;7677;41.896;25.004;2024-03-08T08:59:45;23.73;;;12.43;;
15153;SDS011;7677;41.896;25.004;2024-03-08T09:02:12;23.07;;;13.40;;
15153;SDS011;7677;41.896;25.004;2024-03-08T09:04:41;21.10;;;13.37;;
15153;SDS011;7677;41.896;25.004;2024-03-08T09:07:09;18.10;;;11.87;;
15153;SDS011;7677;41.896;25.004;2024-03-08T09:09:36;24.40;;;13.70;;
15153;SDS011;7677;41.896;25.004;2024-03-08T09:12:03;21.70;;;13.47;;
15153;SDS011;7677;41.896;25.004;2024-03-08T09:14:31;17.37;;;11.70;;
15153;SDS011;7677;41.896;25.004;2024-03-08T09:17:00;17.93;;;11.87;;
15153;SDS011;7677;41.896;25.004;2024-03-08T09:19:27;15.30;;;9.93;;
15153;SDS011;7677;41.896;25.004;2024-03-08T09:21:54;14.33;;;9.97;;
15153;SDS011;7677;41.896;25.004;2024-03-08T09:24:22;14.63;;;10.90;;
15153;SDS011;7677;41.896;25.004;2024-03-08T09:26:49;16.93;;;9.97;;
15153;SDS011;7677;41.896;25.004;2024-03-08T09:29:17;21.50;;;11.57;;
15153;SDS011;7677;41.896;25.004;2024-03-08T09:31:44;18.87;;;12.40;;
15153;SDS011;7677;41.896;25.004;2024-03-08T09:34:14;16.50;;;11.87;;
15153;SDS011;7677;41.896;25.004;2024-03-08T09:36:41;14.93;;;10.27;;
15153;SDS011;7677;41.896;25.004;2024-03-08T09:39:08;12.03;;;9.30;;
15153;SDS011;7677;41.896;25.004;2024-03-08T09:41:41;12.23;;;8.63;;
15153;SDS011;7677;41.896;25.004;2024-03-08T09:44:09;13.63;;;9.60;;
15153;SDS011;7677;41.896;25.004;2024-03-08T09:46:36;11.30;;;8.83;;
15153;SDS011;7677;41.896;25.004;2024-03-08T09:49:04;11.13;;;8.33;;
15153;SDS011;7677;41.896;25.004;2024-03-08T09:51:33;13.20;;;8.40;;
15153;SDS011;7677;41.896;25.004;2024-03-08T09:54:01;11.27;;;9.10;;
15153;SDS011;7677;41.896;25.004;2024-03-08T09:56:30;11.27;;;7.90;;
15153;SDS011;7677;41.896;25.004;2024-03-08T09:58:59;10.83;;;7.30;;
15153;SDS011;7677;41.896;25.004;2024-03-08T10:02:06;9.67;;;7.50;;
15153;SDS011;7677;41.896;25.004;2024-03-08T10:04:34;13.33;;;10.70;;
15153;SDS011;7677;41.896;25.004;2024-03-08T10:07:03;10.97;;;8.50;;
15153;SDS011;7677;41.896;25.004;2024-03-08T10:09:32;10.60;;;8.13;;
15153;SDS011;7677;41.896;25.004;2024-03-08T10:12:01;11.93;;;8.50;;
15153;SDS011;7677;41.896;25.004;2024-03-08T10:14:28;8.00;;;6.20;;
15153;SDS011;7677;41.896;25.004;2024-03-08T10:16:56;7.43;;;5.57;;
15153;SDS011;7677;41.896;25.004;2024-03-08T10:19:25;6.87;;;5.33;;
15153;SDS011;7677;41.896;25.004;2024-03-08T10:21:53;6.70;;;5.40;;
15153;SDS011;7677;41.896;25.004;2024-03-08T10:24:23;7.00;;;5.60;;
15153;SDS011;7677;41.896;25.004;2024-03-08T10:26:52;6.93;;;5.67;;
15153;SDS011;7677;41.896;25.004;2024-03-08T10:29:20;6.77;;;6.03;;
15153;SDS011;7677;41.896;25.004;2024-03-08T10:31:47;7.43;;;6.07;;
15153;SDS011;7677;41.896;25.004;2024-03-08T10:34:15;7.60;;;5.70;;
15153;SDS011;7677;41.896;25.004;2024-03-08T10:36:42;9.63;;;6.93;;
15153;SDS011;7677;41.896;25.004;2024-03-08T10:39:12;7.87;;;6.03;;
15153;SDS011;7677;41.896;25.004;2024-03-08T10:41:46;8.70;;;7.50;;
15153;SDS011;7677;41.896;25.004;2024-03-08T10:44:22;10.47;;;8.47;;
15153;SDS011;7677;41.896;25.004;2024-03-08T10:47:00;11.30;;;7.33;;
15153;SDS011;7677;41.896;25.004;2024-03-08T10:49:31;9.10;;;6.27;;
15153;SDS011;7677;41.896;25.004;2024-03-08T10:52:01;8.27;;;7.10;;
15153;SDS011;7677;41.896;25.004;2024-03-08T10:54:30;12.37;;;8.87;;
15153;SDS011;7677;41.896;25.004;2024-03-08T10:57:00;11.33;;;8.00;;
15153;SDS011;7677;41.896;25.004;2024-03-08T10:59:29;9.50;;;7.23;;
15153;SDS011;7677;41.896;25.004;2024-03-08T11:01:57;9.60;;;7.90;;
15153;SDS011;7677;41.896;25.004;2024-03-08T11:04:24;9.43;;;7.70;;
15153;SDS011;7677;41.896;25.004;2024-03-08T11:06:53;9.37;;;7.30;;
15153;SDS011;7677;41.896;25.004;2024-03-08T11:09:28;9.97;;;8.23;;
15153;SDS011;7677;41.896;25.004;2024-03-08T11:14:55;10.07;;;8.20;;
15153;SDS011;7677;41.896;25.004;2024-03-08T11:17:26;11.03;;;7.40;;
15153;SDS011;7677;41.896;25.004;2024-03-08T11:20:08;9.07;;;6.47;;
15153;SDS011;7677;41.896;25.004;2024-03-08T11:22:41;8.60;;;6.87;;
15153;SDS011;7677;41.896;25.004;2024-03-08T11:25:15;7.27;;;5.73;;
15153;SDS011;7677;41.896;25.004;2024-03-08T11:28:07;8.07;;;6.13;;
15153;SDS011;7677;41.896;25.004;2024-03-08T11:30:42;9.83;;;7.57;;
15153;SDS011;7677;41.896;25.004;2024-03-08T11:33:13;8.30;;;6.87;;
15153;SDS011;7677;41.896;25.004;2024-03-08T11:35:42;8.50;;;6.93;;
15153;SDS011;7677;41.896;25.004;2024-03-08T11:38:11;7.67;;;6.87;;
15153;SDS011;7677;41.896;25.004;2024-03-08T11:40:40;9.80;;;7.67;;
15153;SDS011;7677;41.896;25.004;2024-03-08T11:43:09;9.30;;;7.70;;
15153;SDS011;7677;41.896;25.004;2024-03-08T11:45:36;15.00;;;12.03;;
15153;SDS011;7677;41.896;25.004;2024-03-08T11:48:06;13.83;;;9.60;;
15153;SDS011;7677;41.896;25.004;2024-03-08T11:50:34;10.27;;;6.97;;
15153;SDS011;7677;41.896;25.004;2024-03-08T11:53:01;8.20;;;7.23;;
15153;SDS011;7677;41.896;25.004;2024-03-08T11:55:29;7.90;;;6.70;;
15153;SDS011;7677;41.896;25.004;2024-03-08T11:58:01;8.67;;;6.83;;
15153;SDS011;7677;41.896;25.004;2024-03-08T12:00:31;8.17;;;6.43;;
15153;SDS011;7677;41.896;25.004;2024-03-08T12:03:04;8.73;;;7.47;;
15153;SDS011;7677;41.896;25.004;2024-03-08T12:05:32;7.63;;;6.53;;
15153;SDS011;7677;41.896;25.004;2024-03-08T12:08:00;9.80;;;8.10;;
15153;SDS011;7677;41.896;25.004;2024-03-08T12:10:27;7.33;;;6.60;;
15153;SDS011;7677;41.896;25.004;2024-03-08T12:12:57;8.63;;;6.60;;
15153;SDS011;7677;41.896;25.004;2024-03-08T12:15:26;9.60;;;7.23;;
15153;SDS011;7677;41.896;25.004;2024-03-08T12:17:56;10.93;;;8.83;;
15153;SDS011;7677;41.896;25.004;2024-03-08T12:20:24;12.20;;;7.33;;
15153;SDS011;7677;41.896;25.004;2024-03-08T12:22:54;10.67;;;6.13;;
15153;SDS011;7677;41.896;25.004;2024-03-08T12:25:22;7.17;;;6.17;;
15153;SDS011;7677;41.896;25.004;2024-03-08T12:27:49;7.20;;;5.90;;
15153;SDS011;7677;41.896;25.004;2024-03-08T12:30:21;5.80;;;5.13;;
15153;SDS011;7677;41.896;25.004;2024-03-08T12:32:53;8.10;;;5.90;;
15153;SDS011;7677;41.896;25.004;2024-03-08T12:35:24;7.90;;;5.90;;
15153;SDS011;7677;41.896;25.004;2024-03-08T12:37:52;8.40;;;6.10;;
15153;SDS011;7677;41.896;25.004;2024-03-08T12:40:25;8.33;;;5.70;;
15153;SDS011;7677;41.896;25.004;2024-03-08T12:42:53;9.53;;;7.07;;
15153;SDS011;7677;41.896;25.004;2024-03-08T12:45:21;6.77;;;6.07;;
15153;SDS011;7677;41.896;25.004;2024-03-08T12:47:49;8.37;;;6.37;;
15153;SDS011;7677;41.896;25.004;2024-03-08T12:50:18;8.47;;;6.17;;
15153;SDS011;7677;41.896;25.004;2024-03-08T12:52:47;6.57;;;5.50;;
15153;SDS011;7677;41.896;25.004;2024-03-08T12:55:15;8.20;;;6.20;;
15153;SDS011;7677;41.896;25.004;2024-03-08T12:57:43;8.07;;;6.40;;
15153;SDS011;7677;41.896;25.004;2024-03-08T13:00:12;8.87;;;5.90;;
15153;SDS011;7677;41.896;25.004;2024-03-08T13:02:44;7.07;;;6.00;;
15153;SDS011;7677;41.896;25.004;2024-03-08T13:05:11;10.00;;;7.00;;
15153;SDS011;7677;41.896;25.004;2024-03-08T13:07:39;7.20;;;5.57;;
15153;SDS011;7677;41.896;25.004;2024-03-08T13:10:12;6.77;;;6.07;;
15153;SDS011;7677;41.896;25.004;2024-03-08T13:12:41;9.50;;;6.50;;
15153;SDS011;7677;41.896;25.004;2024-03-08T13:15:08;8.47;;;6.60;;
15153;SDS011;7677;41.896;25.004;2024-03-08T13:17:40;7.07;;;6.13;;
15153;SDS011;7677;41.896;25.004;2024-03-08T13:20:08;9.70;;;6.50;;
15153;SDS011;7677;41.896;25.004;2024-03-08T13:22:41;8.73;;;6.77;;
15153;SDS011;7677;41.896;25.004;2024-03-08T13:25:08;15.03;;;10.27;;
15153;SDS011;7677;41.896;25.004;2024-03-08T13:27:40;11.83;;;8.80;;
15153;SDS011;7677;41.896;25.004;2024-03-08T13:30:08;11.03;;;8.33;;
15153;SDS011;7677;41.896;25.004;2024-03-08T13:32:39;10.13;;;7.90;;
15153;SDS011;7677;41.896;25.004;2024-03-08T13:35:08;9.40;;;7.47;;
15153;SDS011;7677;41.896;25.004;2024-03-08T13:37:38;10.23;;;7.53;;
15153;SDS011;7677;41.896;25.004;2024-03-08T13:40:06;9.00;;;7.27;;
15153;SDS011;7677;41.896;25.004;2024-03-08T13:42:36;12.70;;;7.67;;
15153;SDS011;7677;41.896;25.004;2024-03-08T13:45:06;10.57;;;7.27;;
15153;SDS011;7677;41.896;25.004;2024-03-08T13:47:36;10.90;;;7.73;;
15153;SDS011;7677;41.896;25.004;2024-03-08T13:50:05;9.87;;;7.83;;
15153;SDS011;7677;41.896;25.004;2024-03-08T13:52:37;8.37;;;7.03;;
15153;SDS011;7677;41.896;25.004;2024-03-08T13:55:04;10.07;;;7.13;;
15153;SDS011;7677;41.896;25.004;2024-03-08T13:57:32;8.83;;;7.73;;
15153;SDS011;7677;41.896;25.004;2024-03-08T13:59:59;13.60;;;8.30;;
15153;SDS011;7677;41.896;25.004;2024-03-08T14:02:28;9.87;;;7.53;;
15153;SDS011;7677;41.896;25.004;2024-03-08T14:04:56;11.70;;;8.03;;
15153;SDS011;7677;41.896;25.004;2024-03-08T14:07:26;13.33;;;10.37;;
15153;SDS011;7677;41.896;25.004;2024-03-08T14:09:54;12.33;;;9.70;;
15153;SDS011;7677;41.896;25.004;2024-03-08T14:12:21;16.50;;;11.87;;
15153;SDS011;7677;41.896;25.004;2024-03-08T14:14:51;16.10;;;11.27;;
15153;SDS011;7677;41.896;25.004;2024-03-08T14:17:18;20.50;;;14.83;;
15153;SDS011;7677;41.896;25.004;2024-03-08T14:19:47;19.73;;;13.10;;
15153;SDS011;7677;41.896;25.004;2024-03-08T14:22:15;18.03;;;12.63;;
15153;SDS011;7677;41.896;25.004;2024-03-08T14:24:42;17.63;;;12.20;;
15153;SDS011;7677;41.896;25.004;2024-03-08T14:27:10;16.07;;;11.13;;
15153;SDS011;7677;41.896;25.004;2024-03-08T14:29:37;17.33;;;11.57;;
15153;SDS011;7677;41.896;25.004;2024-03-08T14:32:04;18.50;;;12.40;;
15153;SDS011;7677;41.896;25.004;2024-03-08T14:34:33;22.67;;;15.10;;
15153;SDS011;7677;41.896;25.004;2024-03-08T14:37:02;35.60;;;21.93;;
15153;SDS011;7677;41.896;25.004;2024-03-08T14:39:36;20.60;;;13.97;;